Авда

Карта отелей и гостиниц, располагающихся рядом с аэропортом Авда :

Авда Красноярский край 55° 45' 5.6412" N, 94° 37' 43.0212" E
Авда Красноярский край 55° 45' 5.6412" N, 94° 37' 43.0212" E
Код аэродрома ИКАО
UNQF
Код аэродрома RU
УНЯФ
Координаты
N55.75157° E094.62862°
Превышение над уровнем моря
358
Основная полоса
Курс магнитный
Длина основной ВПП
650
Ширина основной ВПП
40
Покрытие основной ВПП
Нетвёрдое (грунт)
Освещение ВПП
Нет
Тип: 
Аэродром
Класс аэродрома: 
Принадлежность: 
ГА
Статус: 
Недействующий
Сайт: 
E-mail аэродрома: 
Страна: 
Россия
Регион: 
Красноярский край
Город: 
Дополнительная информация: 

Найти трансфер

С помощью этой формы Вы можете найти трансфер из аэропорта Авда в город, аэропорт или вокзал:

Карта места

Javascript is required to view this map.

Погода в аэропортах:

Авиационная погода в Кривом Роге

Регион: 
Погода METAR: 
UKDR 281300Z 14005MPS 0450 R18/0900N FG VV002 09/09 Q1005 BECMG 0500 FG VV002
Время наблюдения
2021-11-28T13:00:00Z
Температура C
9.0
Точка росы
9.0
Направление ветра
140
Скорость ветра (узлы)
10
Метео видимость
0.28
Явления погоды
FG
Условия полета
LIFR
Аэропорт подробнее: 

Авиационная погода в Москва - Внуково

Погода METAR: 
UUWW 281300Z 22006MPS 9999 -RA BKN007 OVC022 02/01 Q1005 R24/290050 TEMPO BKN004
Время наблюдения
2021-11-28T13:00:00Z
Температура C
2.0
Точка росы
1.0
Направление ветра
220
Скорость ветра (узлы)
12
Метео видимость
6.21
Явления погоды
-RA
Условия полета
IFR
Аэропорт подробнее: 

Авиационная погода в Перми

Регион: 
Погода METAR: 
USPP 281300Z 19006MPS 3700 -SN BKN026 M03/M06 Q1015 RESN R21/490242 TEMPO 1000 SN BKN007 RMK QFE751
Время наблюдения
2021-11-28T13:00:00Z
Температура C
-3.0
Точка росы
-6.0
Направление ветра
190
Скорость ветра (узлы)
12
Метео видимость
2.3
Явления погоды
-SN
Условия полета
IFR
Аэропорт подробнее: 

Авиационная погода в аэропорту Международный

Регион: 
Погода METAR: 
UKLL 281100Z 16002MPS 130V200 9000 -RA SCT011 OVC024 07/06 Q0997 TEMPO BKN007
Время наблюдения
2021-11-28T11:00:00Z
Температура C
7.0
Точка росы
6.0
Направление ветра
160
Скорость ветра (узлы)
4
Метео видимость
5.59
Явления погоды
-RA
Условия полета
MVFR
Аэропорт подробнее: